11:38
Airports
History
Links
Donate
Help keep this website running!
PayPal
Bitcoin
This page is community maintained. The information is intended for PC simulator navigation or reference.
Always use approved charts for navigation.
DE10
Kimbowrosa Farm
Kimbowrosa Farm (DE10)
Milford, Delaware, United States (19963)
4
Lat/Lng:38° 58' 0.4" N / 75° 27' 58.72" W
38.966779 / -75.46631
Elevation:40'ft / 12mMSL
ID / ICAO:DE10
Runways:1
Longest:06-24
Grass 531m / 1,742ft
Nearby Weather11:15 GMT 2018-02-20
Nearby weather at KDOV, Dover Afb located 11.2 nautical miles from DE10
Altimeter: 30.34
Visibility: 10.0 statute miles
Wind: 13 knots (from 200°)
Temp: 14°c / 57°f
Humidity: 93.7%

METAR: KDOV 201115Z 20013G20KT 10SM BKN006 14/13 A3034 RMK BKN V SCT SLP277 $

(Powered by phpweather)
Nearby VORs <50NM
Nearby NDBs
Runway 06 / 24
Dimensions:531.1 x 15.2m 1742' x 50'ft
Surface:Grass
Runway 06 [A]Runway 24 [B]
Heading:049°TH 229°TH
Lat:
Lng:
38° 57' 54.74"N
75° 28' 7.1"W
38° 58' 6.07"N
75° 27' 50.33"W
User Notes and Comments
38° 58' 0.4" N / 75° 27' 58.72" W
Distance To
Airport ID:
Nearby Airports
4 Henderson Aviation 4.8 NM
0N6 NW 311°
4 Drummond 5.5 NM
DE11 SE 140°
(R) Johnsons 7.1 NM
DE09 N 350°
(R) Dover Afb 11.2 NM
KDOV ( WX ) N
(U) Chorman 11.3 NM
D74 SW 224°
4 Owens Field 11.5 NM
DE12 SSE 165°
4 Jenkins 12.2 NM
15N NNW 328°
VFR Chart
Flight Planning at SkyVector.com